createdAt,value
2019-05-20T00:00:36.731Z,3.20
2019-05-20T00:03:06.980Z,2.50
2019-05-20T00:05:37.131Z,2.98
2019-05-20T00:08:07.147Z,2.58
2019-05-20T00:10:37.641Z,2.25
2019-05-20T00:13:07.479Z,2.37
2019-05-20T00:15:37.512Z,2.58
2019-05-20T00:18:07.320Z,2.72
2019-05-20T00:20:37.055Z,2.87
2019-05-20T00:23:07.674Z,2.72
2019-05-20T00:25:37.609Z,2.65
2019-05-20T00:28:07.549Z,2.20
2019-05-20T00:30:37.894Z,2.92
2019-05-20T00:33:07.790Z,3.35
2019-05-20T00:35:38.040Z,8.93
2019-05-20T00:38:08.106Z,31.23
2019-05-20T00:40:38.047Z,34.88
2019-05-20T00:43:08.592Z,43.73
2019-05-20T00:45:39.650Z,42.58
2019-05-20T00:48:10.067Z,39.45
2019-05-20T00:50:40.583Z,38.83
2019-05-20T00:53:11.417Z,35.70
2019-05-20T00:55:41.211Z,30.50
2019-05-20T00:58:11.338Z,27.70
2019-05-20T01:00:42.112Z,24.30
2019-05-20T01:03:11.975Z,23.05
2019-05-20T01:05:42.386Z,15.68
2019-05-20T01:08:12.940Z,14.78
2019-05-20T01:10:43.827Z,10.70
2019-05-20T01:13:14.228Z,9.95
2019-05-20T01:15:45.253Z,10.08
2019-05-20T01:18:15.445Z,7.42
2019-05-20T01:20:45.638Z,6.92
2019-05-20T01:23:15.386Z,5.08
2019-05-20T01:25:46.320Z,5.45
2019-05-20T01:28:17.149Z,4.35
2019-05-20T01:30:47.074Z,3.65
2019-05-20T01:33:17.234Z,3.20
2019-05-20T01:35:47.020Z,3.17
2019-05-20T01:38:16.994Z,3.20
2019-05-20T01:40:47.551Z,2.67
2019-05-20T01:43:17.525Z,2.62
2019-05-20T01:45:48.294Z,2.90
2019-05-20T01:48:18.260Z,2.72
2019-05-20T01:50:48.089Z,2.77
2019-05-20T01:53:18.291Z,2.90
2019-05-20T01:55:48.288Z,2.55
2019-05-20T01:58:18.255Z,2.80
2019-05-20T02:00:49.190Z,2.72
2019-05-20T02:03:30.871Z,2.70
2019-05-20T02:05:51.298Z,2.72
2019-05-20T02:08:21.283Z,3.10
2019-05-20T02:10:51.358Z,2.90
2019-05-20T02:13:21.311Z,2.98
2019-05-20T02:16:00.072Z,2.98
2019-05-20T02:18:29.971Z,2.70
2019-05-20T02:20:59.854Z,3.05
2019-05-20T02:23:29.984Z,3.40
2019-05-20T02:26:00.341Z,2.87
2019-05-20T02:28:30.719Z,2.95
2019-05-20T02:31:00.845Z,2.87
2019-05-20T02:33:49.750Z,2.85
2019-05-20T02:36:04.921Z,2.90
2019-05-20T02:38:34.938Z,3.00
2019-05-20T02:41:05.003Z,3.70
2019-05-20T02:43:34.983Z,2.70
2019-05-20T02:46:05.521Z,3.10
2019-05-20T02:48:35.631Z,3.00
2019-05-20T02:51:06.148Z,2.85
2019-05-20T02:53:36.167Z,3.15
2019-05-20T02:56:06.962Z,3.50
2019-05-20T02:58:37.619Z,3.30
2019-05-20T03:01:08.344Z,3.12
2019-05-20T03:03:38.158Z,3.45
2019-05-20T03:06:08.079Z,3.30
2019-05-20T03:08:38.878Z,2.90
2019-05-20T03:11:09.082Z,3.27
2019-05-20T03:13:38.916Z,2.85
2019-05-20T03:16:08.910Z,3.40
2019-05-20T03:18:38.888Z,3.47
2019-05-20T03:21:08.766Z,3.90
2019-05-20T03:23:38.496Z,5.37
2019-05-20T03:26:08.320Z,5.15
2019-05-20T03:28:38.584Z,5.35
2019-05-20T03:31:08.422Z,5.67
2019-05-20T03:33:38.254Z,5.25
2019-05-20T03:36:08.863Z,5.25
2019-05-20T03:38:40.379Z,5.03
2019-05-20T03:41:10.199Z,4.80
2019-05-20T03:43:40.528Z,4.78
2019-05-20T03:46:10.441Z,4.72
2019-05-20T03:48:40.153Z,4.80
2019-05-20T03:51:10.349Z,5.08
2019-05-20T03:53:40.512Z,5.20
2019-05-20T03:56:10.272Z,4.70
2019-05-20T03:58:40.071Z,4.92
2019-05-20T04:01:10.666Z,5.15
2019-05-20T04:03:40.442Z,4.85
2019-05-20T04:06:10.331Z,4.97
2019-05-20T04:08:40.690Z,4.25
2019-05-20T04:11:10.439Z,4.50
2019-05-20T04:13:40.326Z,4.58
2019-05-20T04:16:10.275Z,4.65
2019-05-20T04:18:40.348Z,4.33
2019-05-20T04:21:10.331Z,4.58
2019-05-20T04:23:40.225Z,4.45
2019-05-20T04:26:11.068Z,4.35
2019-05-20T04:28:41.068Z,3.60
2019-05-20T04:31:11.925Z,3.92
2019-05-20T04:33:41.894Z,3.80
2019-05-20T04:36:11.724Z,4.00
2019-05-20T04:38:41.570Z,3.80
2019-05-20T04:41:11.403Z,4.20
2019-05-20T04:43:41.687Z,3.85
2019-05-20T04:46:12.315Z,4.37
2019-05-20T04:48:42.723Z,4.00
2019-05-20T04:51:13.455Z,4.47
2019-05-20T04:53:44.434Z,4.70
2019-05-20T04:56:14.342Z,4.37
2019-05-20T04:58:44.129Z,4.20
2019-05-20T05:01:14.009Z,4.85
2019-05-20T05:03:43.776Z,4.15
2019-05-20T05:06:13.537Z,4.10
2019-05-20T05:08:44.510Z,4.37
2019-05-20T05:11:14.287Z,4.78
2019-05-20T05:13:44.293Z,5.03
2019-05-20T05:16:14.199Z,4.75
2019-05-20T05:18:44.841Z,4.97
2019-05-20T05:21:15.122Z,5.42
2019-05-20T05:23:58.343Z,4.75
2019-05-20T05:26:17.547Z,4.90
2019-05-20T05:28:48.842Z,4.80
2019-05-20T05:31:19.041Z,5.10
2019-05-20T05:33:49.508Z,4.58
2019-05-20T05:36:20.067Z,4.22
2019-05-20T05:38:51.015Z,4.28
2019-05-20T05:41:21.813Z,3.90
2019-05-20T05:43:51.779Z,3.65
2019-05-20T05:46:22.652Z,4.20
2019-05-20T05:48:52.607Z,3.75
2019-05-20T05:51:22.812Z,3.30
2019-05-20T05:53:53.067Z,4.12
2019-05-20T05:56:22.865Z,3.75
2019-05-20T05:58:52.656Z,3.90
2019-05-20T06:01:22.455Z,3.90
2019-05-20T06:03:53.286Z,4.05
2019-05-20T06:06:23.046Z,3.85
2019-05-20T06:08:52.891Z,3.83
2019-05-20T06:11:23.227Z,3.80
2019-05-20T06:13:52.994Z,4.00
2019-05-20T06:16:36.117Z,4.20
2019-05-20T06:18:54.726Z,4.08
2019-05-20T06:21:25.131Z,4.12
2019-05-20T06:23:54.959Z,4.62
2019-05-20T06:26:24.951Z,4.20
2019-05-20T06:28:55.383Z,4.47
2019-05-20T06:31:25.902Z,4.45
2019-05-20T06:33:56.815Z,4.62
2019-05-20T06:36:27.659Z,4.50
2019-05-20T06:39:13.473Z,5.78
2019-05-20T06:41:44.654Z,5.05
2019-05-20T06:44:15.232Z,4.97
2019-05-20T06:46:45.818Z,4.83
2019-05-20T06:49:17.141Z,4.85
2019-05-20T06:51:47.638Z,5.05
2019-05-20T06:54:17.684Z,5.15
2019-05-20T06:56:47.701Z,4.55
2019-05-20T06:59:18.219Z,5.22
2019-05-20T07:01:48.487Z,5.80
2019-05-20T07:04:18.735Z,5.12
2019-05-20T07:06:49.286Z,5.00
2019-05-20T07:09:19.913Z,4.35
2019-05-20T07:11:52.641Z,4.20
2019-05-20T07:14:21.463Z,4.50
2019-05-20T07:16:51.656Z,4.60
2019-05-20T07:19:22.030Z,4.72
2019-05-20T07:21:52.379Z,4.70
2019-05-20T07:24:22.221Z,5.15
2019-05-20T07:26:52.114Z,5.08
2019-05-20T07:29:22.014Z,4.70
2019-05-20T07:31:52.909Z,4.30
2019-05-20T07:34:23.055Z,4.08
2019-05-20T07:37:03.439Z,3.75
2019-05-20T07:39:26.400Z,3.72
2019-05-20T07:41:56.811Z,4.40
2019-05-20T07:44:27.878Z,4.50
2019-05-20T07:46:58.135Z,3.90
2019-05-20T07:49:29.279Z,3.58
2019-05-20T07:51:59.171Z,4.05
2019-05-20T07:54:30.217Z,4.03
2019-05-20T07:57:01.792Z,4.37
2019-05-20T07:59:32.831Z,4.28
2019-05-20T08:02:02.783Z,4.50
2019-05-20T08:04:33.865Z,4.58
2019-05-20T08:07:25.977Z,4.37
2019-05-20T08:09:42.807Z,4.28
2019-05-20T08:12:07.972Z,4.47
2019-05-20T08:14:37.807Z,3.98
2019-05-20T08:17:07.661Z,3.95
2019-05-20T08:19:38.309Z,4.35
2019-05-20T08:22:09.093Z,3.58
2019-05-20T08:24:39.588Z,4.00
2019-05-20T08:27:10.823Z,3.58
2019-05-20T08:29:42.907Z,3.50
2019-05-20T08:32:13.422Z,3.20
2019-05-20T08:34:44.449Z,3.60
2019-05-20T08:37:15.178Z,3.35
2019-05-20T08:39:45.549Z,3.45
2019-05-20T08:42:15.393Z,3.52
2019-05-20T08:44:45.852Z,3.60
2019-05-20T08:47:15.692Z,4.05
2019-05-20T08:49:47.726Z,3.70
2019-05-20T08:52:17.508Z,3.83
2019-05-20T08:54:48.567Z,4.03
2019-05-20T08:57:18.432Z,4.08
2019-05-20T08:59:49.454Z,3.72
2019-05-20T09:02:19.444Z,4.35
2019-05-20T09:04:49.243Z,4.65
2019-05-20T09:07:19.151Z,4.22
2019-05-20T09:09:50.116Z,3.77
2019-05-20T09:12:20.652Z,3.72
2019-05-20T09:14:50.686Z,4.00
2019-05-20T09:17:22.467Z,3.92
2019-05-20T09:19:52.405Z,4.00
2019-05-20T09:22:22.243Z,4.00
2019-05-20T09:24:52.929Z,3.77
2019-05-20T09:27:23.218Z,4.05
2019-05-20T09:29:53.105Z,4.55
2019-05-20T09:32:22.929Z,4.60
2019-05-20T09:34:53.439Z,4.25
2019-05-20T09:37:23.296Z,4.50
2019-05-20T09:39:53.316Z,4.42
2019-05-20T09:42:23.258Z,4.72
2019-05-20T09:44:53.119Z,4.55
2019-05-20T09:47:23.311Z,4.40
2019-05-20T09:49:53.387Z,4.62
2019-05-20T09:52:23.730Z,4.17
2019-05-20T09:54:54.615Z,4.20
2019-05-20T09:57:27.395Z,4.15
2019-05-20T09:59:57.289Z,4.17
2019-05-20T10:02:36.102Z,4.40
2019-05-20T10:05:00.265Z,4.40
2019-05-20T10:07:32.049Z,3.87
2019-05-20T10:10:04.036Z,3.92
2019-05-20T10:12:45.436Z,4.12
2019-05-20T10:15:07.040Z,4.00
2019-05-20T10:17:37.087Z,3.77
2019-05-20T10:20:07.249Z,4.00
2019-05-20T10:22:37.432Z,3.62
2019-05-20T10:25:10.370Z,3.50
2019-05-20T10:27:40.683Z,3.95
2019-05-20T10:30:12.143Z,3.65
2019-05-20T10:32:42.726Z,3.37
2019-05-20T10:35:15.143Z,3.42
2019-05-20T10:37:45.810Z,3.25
2019-05-20T10:40:18.655Z,3.37
2019-05-20T10:42:49.090Z,3.17
2019-05-20T10:45:19.021Z,3.22
2019-05-20T10:47:49.071Z,2.90
2019-05-20T10:50:19.062Z,2.83
2019-05-20T10:52:48.966Z,2.60
2019-05-20T10:55:19.080Z,2.75
2019-05-20T10:57:49.892Z,2.67
2019-05-20T11:00:21.316Z,2.75
2019-05-20T11:02:52.073Z,3.00
2019-05-20T11:05:22.367Z,3.02
2019-05-20T11:07:52.550Z,2.52
2019-05-20T11:10:22.510Z,2.60
2019-05-20T11:12:52.385Z,2.47
2019-05-20T11:15:22.660Z,2.42
2019-05-20T11:17:53.196Z,2.80
2019-05-20T11:20:23.201Z,2.47
2019-05-20T11:22:53.002Z,2.50
2019-05-20T11:25:22.827Z,2.40
2019-05-20T11:27:52.583Z,2.65
2019-05-20T11:30:22.387Z,2.55
2019-05-20T11:32:52.196Z,2.50
2019-05-20T11:35:22.525Z,3.22
2019-05-20T11:37:52.412Z,3.00
2019-05-20T11:40:23.175Z,3.12
2019-05-20T11:42:53.468Z,2.70
2019-05-20T11:45:23.739Z,3.25
2019-05-20T11:47:54.157Z,2.90
2019-05-20T11:50:24.046Z,2.92
2019-05-20T11:52:53.845Z,3.10
2019-05-20T11:55:24.183Z,3.20
2019-05-20T11:57:54.135Z,2.90
2019-05-20T12:00:24.442Z,2.87
2019-05-20T12:02:54.434Z,2.80
2019-05-20T12:05:26.166Z,3.12
2019-05-20T12:07:56.139Z,2.95
2019-05-20T12:10:25.968Z,2.47
2019-05-20T12:12:58.088Z,2.55
2019-05-20T12:15:27.869Z,2.47
2019-05-20T12:17:58.216Z,2.52
2019-05-20T12:20:28.037Z,2.20
2019-05-20T12:22:57.871Z,2.80
2019-05-20T12:25:27.725Z,2.40
2019-05-20T12:27:58.524Z,2.45
2019-05-20T12:30:28.994Z,2.50
2019-05-20T12:33:17.706Z,3.00
2019-05-20T12:35:31.206Z,2.77
2019-05-20T12:38:01.205Z,2.58
2019-05-20T12:40:31.066Z,2.27
2019-05-20T12:43:00.938Z,2.45
2019-05-20T12:45:31.614Z,2.20
2019-05-20T12:48:01.503Z,2.40
2019-05-20T12:50:32.626Z,2.10
2019-05-20T12:53:02.741Z,2.33
2019-05-20T12:55:33.627Z,2.37
2019-05-20T12:58:03.493Z,2.25
2019-05-20T13:00:33.407Z,3.10
2019-05-20T13:03:04.062Z,2.77
2019-05-20T13:05:33.843Z,2.30
2019-05-20T13:08:04.422Z,2.83
2019-05-20T13:10:34.848Z,2.60
2019-05-20T13:13:05.164Z,2.55
2019-05-20T13:15:34.966Z,2.67
2019-05-20T13:18:05.788Z,2.80
2019-05-20T13:20:35.656Z,2.47
2019-05-20T13:23:07.737Z,2.37
2019-05-20T13:25:37.067Z,2.60
2019-05-20T13:28:06.839Z,2.60
2019-05-20T13:30:36.862Z,2.70
2019-05-20T13:33:07.805Z,2.83
2019-05-20T13:35:42.046Z,2.60
2019-05-20T13:38:12.515Z,2.50
2019-05-20T13:40:47.376Z,2.42
2019-05-20T13:43:16.811Z,2.58
2019-05-20T13:45:48.834Z,2.83
2019-05-20T13:48:19.650Z,2.92
2019-05-20T13:50:50.010Z,2.62
2019-05-20T13:53:20.754Z,2.90
2019-05-20T13:55:50.989Z,2.92
2019-05-20T13:58:20.986Z,2.65
2019-05-20T14:00:52.073Z,2.62
2019-05-20T14:03:21.895Z,2.52
2019-05-20T14:05:52.374Z,2.72
2019-05-20T14:08:22.126Z,2.85
2019-05-20T14:11:03.655Z,2.52
2019-05-20T14:13:23.884Z,3.10
2019-05-20T14:15:57.571Z,2.90
2019-05-20T14:18:27.653Z,3.10
2019-05-20T14:20:57.972Z,3.00
2019-05-20T14:23:27.887Z,3.70
2019-05-20T14:25:57.880Z,3.02
2019-05-20T14:28:28.881Z,3.17
2019-05-20T14:30:59.658Z,2.80
2019-05-20T14:33:29.505Z,3.27
2019-05-20T14:35:59.548Z,2.70
2019-05-20T14:38:29.848Z,3.10
2019-05-20T14:41:00.145Z,3.25
2019-05-20T14:43:30.377Z,3.27
2019-05-20T14:46:01.571Z,3.22
2019-05-20T14:48:31.525Z,3.00
2019-05-20T14:51:02.510Z,2.92
2019-05-20T14:53:32.305Z,3.35
2019-05-20T14:56:02.355Z,3.17
2019-05-20T14:58:32.370Z,3.08
2019-05-20T15:01:02.784Z,3.65
2019-05-20T15:03:33.279Z,3.22
2019-05-20T15:06:03.264Z,3.10
2019-05-20T15:08:34.621Z,3.20
2019-05-20T15:11:05.171Z,3.30
2019-05-20T15:13:36.397Z,3.17
2019-05-20T15:16:06.873Z,3.42
2019-05-20T15:18:36.721Z,3.00
2019-05-20T15:21:06.947Z,3.20
2019-05-20T15:23:38.015Z,3.33
2019-05-20T15:26:08.167Z,3.67
2019-05-20T15:28:38.647Z,3.25
2019-05-20T15:31:08.555Z,3.25
2019-05-20T15:33:38.520Z,3.20
2019-05-20T15:36:08.896Z,2.85
2019-05-20T15:38:38.898Z,2.95
2019-05-20T15:41:09.319Z,3.17
2019-05-20T15:43:39.342Z,3.30
2019-05-20T15:46:09.921Z,3.45
2019-05-20T15:48:40.294Z,3.20
2019-05-20T15:51:10.767Z,3.00
2019-05-20T15:53:41.200Z,3.00
2019-05-20T15:56:11.155Z,3.05
2019-05-20T15:58:43.369Z,3.00
2019-05-20T16:01:13.204Z,2.90
2019-05-20T16:03:43.055Z,3.08
2019-05-20T16:06:13.103Z,3.25
2019-05-20T16:08:43.441Z,2.65
2019-05-20T16:11:13.387Z,2.90
2019-05-20T16:13:44.043Z,3.00
2019-05-20T16:16:14.655Z,3.00
2019-05-20T16:18:45.179Z,3.30
2019-05-20T16:21:16.367Z,2.80
2019-05-20T16:23:46.479Z,3.00
2019-05-20T16:26:16.414Z,2.83
2019-05-20T16:28:47.550Z,3.20
2019-05-20T16:31:18.261Z,2.95
2019-05-20T16:33:48.792Z,2.90
2019-05-20T16:36:19.218Z,3.15
2019-05-20T16:38:49.943Z,3.25
2019-05-20T16:41:19.951Z,3.40
2019-05-20T16:43:50.003Z,3.50
2019-05-20T16:46:20.324Z,3.00
2019-05-20T16:48:50.308Z,3.40
2019-05-20T16:51:22.379Z,3.95
2019-05-20T16:53:51.868Z,3.70
2019-05-20T16:56:22.462Z,3.50
2019-05-20T16:58:53.566Z,3.35
2019-05-20T17:01:25.103Z,3.80
2019-05-20T17:03:54.986Z,3.95
2019-05-20T17:06:27.558Z,3.40
2019-05-20T17:08:57.022Z,3.45
2019-05-20T17:11:26.950Z,3.60
2019-05-20T17:13:57.393Z,3.65
2019-05-20T17:16:28.346Z,3.30
2019-05-20T17:18:58.816Z,3.42
2019-05-20T17:21:29.703Z,3.60
2019-05-20T17:23:59.543Z,3.37
2019-05-20T17:26:29.448Z,3.30
2019-05-20T17:28:59.737Z,3.50
2019-05-20T17:31:30.939Z,3.40
2019-05-20T17:34:01.433Z,3.55
2019-05-20T17:36:31.284Z,3.62
2019-05-20T17:39:01.164Z,3.70
2019-05-20T17:41:32.590Z,3.60
2019-05-20T17:44:03.984Z,3.17
2019-05-20T17:46:33.893Z,3.75
2019-05-20T17:49:03.815Z,3.52
2019-05-20T17:51:33.847Z,3.65
2019-05-20T17:54:03.784Z,3.70
2019-05-20T17:56:33.895Z,3.65
2019-05-20T17:59:04.074Z,3.77
2019-05-20T18:01:33.879Z,3.70
2019-05-20T18:04:04.092Z,3.75
2019-05-20T18:06:34.639Z,3.58
2019-05-20T18:09:06.377Z,3.75
2019-05-20T18:11:36.250Z,3.87
2019-05-20T18:14:06.166Z,4.10
2019-05-20T18:16:35.983Z,4.35
2019-05-20T18:19:08.468Z,4.37
2019-05-20T18:21:38.789Z,4.12
2019-05-20T18:24:10.931Z,4.00
2019-05-20T18:26:41.151Z,3.72
2019-05-20T18:29:11.398Z,3.72
2019-05-20T18:31:41.401Z,4.03
2019-05-20T18:34:11.368Z,3.92
2019-05-20T18:36:41.667Z,4.08
2019-05-20T18:39:12.069Z,4.20
2019-05-20T18:41:41.942Z,4.28
2019-05-20T18:44:13.370Z,4.08
2019-05-20T18:46:43.635Z,4.03
2019-05-20T18:49:14.070Z,3.92
2019-05-20T18:51:44.888Z,4.05
2019-05-20T18:54:14.912Z,4.00
2019-05-20T18:56:45.573Z,4.12
2019-05-20T18:59:16.364Z,3.98
2019-05-20T19:02:02.377Z,4.12
2019-05-20T19:04:19.547Z,4.05
2019-05-20T19:06:52.016Z,4.10
2019-05-20T19:09:21.845Z,4.10
2019-05-20T19:11:51.786Z,4.30
2019-05-20T19:14:21.776Z,3.85
2019-05-20T19:16:52.355Z,3.58
2019-05-20T19:19:22.499Z,4.33
2019-05-20T19:21:52.314Z,4.50
2019-05-20T19:24:22.413Z,3.80
2019-05-20T19:26:53.632Z,3.90
2019-05-20T19:29:23.743Z,4.05
2019-05-20T19:32:01.674Z,4.28
2019-05-20T19:34:26.596Z,3.90
2019-05-20T19:36:57.964Z,3.90
2019-05-20T19:39:28.291Z,4.10
2019-05-20T19:41:58.742Z,3.85
2019-05-20T19:44:29.095Z,3.77
2019-05-20T19:46:59.007Z,3.90
2019-05-20T19:49:31.587Z,3.55
2019-05-20T19:52:02.636Z,3.50
2019-05-20T19:54:32.959Z,3.50
2019-05-20T19:57:03.429Z,3.55
2019-05-20T19:59:33.381Z,3.98
2019-05-20T20:02:16.494Z,3.33
2019-05-20T20:04:36.045Z,3.52
2019-05-20T20:07:06.300Z,3.92
2019-05-20T20:09:36.926Z,3.17
2019-05-20T20:12:07.095Z,3.15
2019-05-20T20:14:38.512Z,3.30
2019-05-20T20:17:08.808Z,3.40
2019-05-20T20:19:38.704Z,3.40
2019-05-20T20:22:09.004Z,3.40
2019-05-20T20:24:39.407Z,3.72
2019-05-20T20:27:09.834Z,3.60
2019-05-20T20:29:40.233Z,3.65
2019-05-20T20:32:10.644Z,3.25
2019-05-20T20:34:43.735Z,3.40
2019-05-20T20:37:14.025Z,3.70
2019-05-20T20:39:44.065Z,3.20
2019-05-20T20:42:13.950Z,3.70
2019-05-20T20:44:43.694Z,3.30
2019-05-20T20:47:13.705Z,3.50
2019-05-20T20:49:43.538Z,3.58
2019-05-20T20:52:13.447Z,3.20
2019-05-20T20:54:44.273Z,4.05
2019-05-20T20:57:26.361Z,3.33
2019-05-20T20:59:56.536Z,3.58
2019-05-20T21:02:27.706Z,3.90
2019-05-20T21:04:57.707Z,3.62
2019-05-20T21:07:27.779Z,4.40
2019-05-20T21:09:58.247Z,4.50
2019-05-20T21:12:28.127Z,4.20
2019-05-20T21:14:58.365Z,4.62
2019-05-20T21:17:28.759Z,4.53
2019-05-20T21:20:00.006Z,4.50
2019-05-20T21:22:30.378Z,4.72
2019-05-20T21:25:00.402Z,4.40
2019-05-20T21:27:30.207Z,4.80
2019-05-20T21:30:00.085Z,4.80
2019-05-20T21:32:31.059Z,4.60
2019-05-20T21:35:01.369Z,4.35
2019-05-20T21:37:32.159Z,4.58
2019-05-20T21:40:02.300Z,4.45
2019-05-20T21:42:32.411Z,5.08
2019-05-20T21:45:02.425Z,5.65
2019-05-20T21:47:32.252Z,5.83
2019-05-20T21:50:02.189Z,6.30
2019-05-20T21:52:32.320Z,7.05
2019-05-20T21:55:02.914Z,6.80
2019-05-20T21:57:32.815Z,7.53
2019-05-20T22:00:02.607Z,7.67
2019-05-20T22:02:33.963Z,6.62
2019-05-20T22:05:04.348Z,6.85
2019-05-20T22:07:35.769Z,7.10
2019-05-20T22:10:05.737Z,7.53
2019-05-20T22:12:36.259Z,7.25
2019-05-20T22:15:06.299Z,8.28
2019-05-20T22:17:36.212Z,7.97
2019-05-20T22:20:06.841Z,8.65
2019-05-20T22:22:45.298Z,8.90
2019-05-20T22:25:15.149Z,8.70
2019-05-20T22:27:45.084Z,8.48
2019-05-20T22:30:15.390Z,8.48
2019-05-20T22:32:45.853Z,8.85
2019-05-20T22:35:15.736Z,8.30
2019-05-20T22:37:46.579Z,9.30
2019-05-20T22:40:16.875Z,8.25
2019-05-20T22:42:46.933Z,7.65
2019-05-20T22:45:17.587Z,8.10
2019-05-20T22:47:47.618Z,7.78
2019-05-20T22:50:17.848Z,7.92
2019-05-20T22:52:48.007Z,7.40
2019-05-20T22:55:17.919Z,7.20
2019-05-20T22:57:49.296Z,7.37
2019-05-20T23:00:20.444Z,8.30
2019-05-20T23:02:50.275Z,8.08
2019-05-20T23:05:21.085Z,8.30
2019-05-20T23:07:50.939Z,8.93
2019-05-20T23:10:21.231Z,7.75
2019-05-20T23:12:51.533Z,9.10
2019-05-20T23:15:21.328Z,9.18
2019-05-20T23:17:51.990Z,8.90
2019-05-20T23:20:22.157Z,9.30
2019-05-20T23:22:52.455Z,7.87
2019-05-20T23:25:22.412Z,7.35
2019-05-20T23:27:52.242Z,6.92
2019-05-20T23:30:22.111Z,7.58
2019-05-20T23:32:52.371Z,7.70
2019-05-20T23:35:22.158Z,7.22
2019-05-20T23:37:52.527Z,7.40
2019-05-20T23:40:24.235Z,6.75
2019-05-20T23:42:54.447Z,6.42
2019-05-20T23:45:24.671Z,7.03
2019-05-20T23:47:54.467Z,6.72
2019-05-20T23:50:24.659Z,7.35
2019-05-20T23:52:54.463Z,6.80
2019-05-20T23:55:24.721Z,6.35
2019-05-20T23:57:54.498Z,6.87
